createdAt,value
2023-04-30T00:02:20.443Z,3.00
2023-04-30T00:04:47.330Z,3.10
2023-04-30T00:07:14.680Z,3.40
2023-04-30T00:09:41.559Z,3.30
2023-04-30T00:12:08.330Z,3.57
2023-04-30T00:14:35.169Z,3.63
2023-04-30T00:17:01.940Z,3.70
2023-04-30T00:19:28.689Z,3.87
2023-04-30T00:21:55.538Z,3.73
2023-04-30T00:24:22.269Z,4.03
2023-04-30T00:26:49.129Z,4.43
2023-04-30T00:29:15.881Z,4.13
2023-04-30T00:31:42.654Z,3.53
2023-04-30T00:34:09.415Z,3.90
2023-04-30T00:36:36.193Z,4.00
2023-04-30T00:39:03.108Z,3.90
2023-04-30T00:41:31.985Z,4.43
2023-04-30T00:43:58.733Z,4.40
2023-04-30T00:46:25.543Z,4.00
2023-04-30T00:48:52.384Z,4.03
2023-04-30T00:51:19.487Z,4.20
2023-04-30T00:53:46.876Z,4.50
2023-04-30T00:56:16.605Z,4.17
2023-04-30T00:58:43.383Z,4.30
2023-04-30T01:01:10.876Z,4.30
2023-04-30T01:03:37.857Z,4.60
2023-04-30T01:06:05.003Z,4.50
2023-04-30T01:08:32.494Z,5.37
2023-04-30T01:11:13.121Z,4.00
2023-04-30T01:14:04.526Z,4.20
2023-04-30T01:16:36.605Z,4.40
2023-04-30T01:19:15.994Z,4.90
2023-04-30T01:21:43.828Z,4.27
2023-04-30T01:24:36.430Z,4.40
2023-04-30T01:27:40.940Z,4.90
2023-04-30T01:30:09.152Z,4.30
2023-04-30T01:32:36.257Z,4.30
2023-04-30T01:35:03.444Z,5.03
2023-04-30T01:38:01.812Z,4.40
2023-04-30T01:40:41.048Z,4.50
2023-04-30T01:43:38.675Z,4.73
2023-04-30T01:46:19.433Z,4.20
2023-04-30T01:49:12.822Z,5.47
2023-04-30T01:51:48.413Z,4.73
2023-04-30T01:54:27.838Z,4.50
2023-04-30T01:57:06.241Z,4.60
2023-04-30T01:59:36.258Z,5.00
2023-04-30T02:02:03.787Z,5.67
2023-04-30T02:04:30.819Z,4.63
2023-04-30T02:06:58.982Z,5.00
2023-04-30T02:09:25.737Z,4.90
2023-04-30T02:11:52.808Z,5.00
2023-04-30T02:14:19.666Z,4.50
2023-04-30T02:16:46.856Z,4.63
2023-04-30T02:19:13.720Z,5.20
2023-04-30T02:21:40.789Z,4.70
2023-04-30T02:24:07.661Z,4.10
2023-04-30T02:26:34.429Z,4.87
2023-04-30T02:29:01.195Z,4.60
2023-04-30T02:31:27.914Z,4.47
2023-04-30T02:33:54.797Z,4.87
2023-04-30T02:36:21.542Z,4.80
2023-04-30T02:38:48.322Z,4.13
2023-04-30T02:41:15.034Z,4.70
2023-04-30T02:43:41.793Z,5.00
2023-04-30T02:46:08.562Z,5.13
2023-04-30T02:48:35.852Z,4.87
2023-04-30T02:51:02.650Z,4.87
2023-04-30T02:53:29.344Z,5.07
2023-04-30T02:55:56.160Z,5.13
2023-04-30T02:58:22.943Z,4.70
2023-04-30T03:00:49.819Z,5.33
2023-04-30T03:03:16.734Z,5.60
2023-04-30T03:05:43.563Z,5.73
2023-04-30T03:08:10.288Z,5.40
2023-04-30T03:10:36.999Z,5.17
2023-04-30T03:13:03.785Z,5.20
2023-04-30T03:15:33.207Z,5.83
2023-04-30T03:18:00.057Z,5.33
2023-04-30T03:20:26.880Z,6.03
2023-04-30T03:22:53.617Z,5.87
2023-04-30T03:25:20.349Z,5.40
2023-04-30T03:27:47.119Z,5.60
2023-04-30T03:30:14.145Z,6.00
2023-04-30T03:32:41.070Z,6.30
2023-04-30T03:35:08.780Z,5.70
2023-04-30T03:37:35.540Z,6.23
2023-04-30T03:40:02.298Z,5.30
2023-04-30T03:42:29.073Z,5.97
2023-04-30T03:44:55.827Z,5.87
2023-04-30T03:47:22.554Z,6.50
2023-04-30T03:49:55.507Z,6.00
2023-04-30T03:52:22.725Z,5.87
2023-04-30T03:54:49.432Z,6.37
2023-04-30T03:57:16.298Z,5.93
2023-04-30T03:59:43.162Z,5.23
2023-04-30T04:02:10.039Z,5.63
2023-04-30T04:04:36.869Z,5.83
2023-04-30T04:07:04.008Z,6.03
2023-04-30T04:09:30.926Z,5.83
2023-04-30T04:11:58.197Z,5.80
2023-04-30T04:14:25.062Z,5.90
2023-04-30T04:16:51.842Z,6.07
2023-04-30T04:19:18.568Z,5.70
2023-04-30T04:21:45.504Z,5.83
2023-04-30T04:24:12.659Z,6.63
2023-04-30T04:26:39.409Z,5.83
2023-04-30T04:29:06.631Z,5.90
2023-04-30T04:31:33.407Z,6.20
2023-04-30T04:34:01.379Z,6.60
2023-04-30T04:36:28.928Z,6.50
2023-04-30T04:38:57.850Z,6.23
2023-04-30T04:41:25.548Z,6.03
2023-04-30T04:43:53.071Z,6.30
2023-04-30T04:46:21.113Z,6.13
2023-04-30T04:48:47.933Z,5.47
2023-04-30T04:51:14.691Z,9.17
2023-04-30T04:53:41.477Z,6.50
2023-04-30T04:56:09.168Z,6.20
2023-04-30T04:58:36.002Z,6.23
2023-04-30T05:01:05.200Z,6.37
2023-04-30T05:03:32.930Z,6.70
2023-04-30T05:05:59.809Z,6.53
2023-04-30T05:08:27.499Z,7.13
2023-04-30T05:10:54.314Z,6.87
2023-04-30T05:13:21.059Z,7.13
2023-04-30T05:15:51.350Z,7.10
2023-04-30T05:18:18.092Z,7.00
2023-04-30T05:20:44.846Z,6.73
2023-04-30T05:23:11.693Z,6.70
2023-04-30T05:25:38.500Z,6.50
2023-04-30T05:28:05.511Z,7.23
2023-04-30T05:30:32.673Z,6.87
2023-04-30T05:32:59.474Z,6.60
2023-04-30T05:35:26.383Z,6.20
2023-04-30T05:37:53.070Z,6.57
2023-04-30T05:40:19.775Z,7.13
2023-04-30T05:42:46.534Z,6.90
2023-04-30T05:45:14.910Z,7.67
2023-04-30T05:47:41.768Z,6.67
2023-04-30T05:50:10.156Z,7.27
2023-04-30T05:52:37.049Z,6.50
2023-04-30T05:55:03.802Z,7.30
2023-04-30T05:57:30.607Z,7.03
2023-04-30T05:59:57.746Z,7.67
2023-04-30T06:02:24.574Z,6.93
2023-04-30T06:04:51.626Z,6.90
2023-04-30T06:07:18.330Z,8.20
2023-04-30T06:09:45.066Z,7.13
2023-04-30T06:12:11.822Z,7.57
2023-04-30T06:14:38.819Z,7.53
2023-04-30T06:17:05.857Z,7.70
2023-04-30T06:19:32.643Z,7.90
2023-04-30T06:21:59.380Z,7.60
2023-04-30T06:24:27.795Z,7.80
2023-04-30T06:26:54.541Z,7.97
2023-04-30T06:29:21.393Z,7.60
2023-04-30T06:31:48.235Z,8.80
2023-04-30T06:34:14.986Z,8.77
2023-04-30T06:36:41.722Z,7.97
2023-04-30T06:39:08.597Z,8.20
2023-04-30T06:41:35.377Z,8.80
2023-04-30T06:44:02.200Z,7.90
2023-04-30T06:46:28.968Z,7.57
2023-04-30T06:48:55.759Z,8.10
2023-04-30T06:51:22.489Z,7.80
2023-04-30T06:53:49.215Z,8.53
2023-04-30T06:56:16.664Z,6.83
2023-04-30T06:58:43.365Z,8.07
2023-04-30T07:01:10.105Z,8.20
2023-04-30T07:03:37.010Z,8.53
2023-04-30T07:06:04.076Z,7.73
2023-04-30T07:08:30.803Z,8.00
2023-04-30T07:10:58.248Z,6.67
2023-04-30T07:13:25.004Z,7.27
2023-04-30T07:15:51.952Z,7.90
2023-04-30T07:18:18.769Z,7.60
2023-04-30T07:20:45.940Z,7.80
2023-04-30T07:23:12.638Z,7.40
2023-04-30T07:25:39.585Z,7.17
2023-04-30T07:28:06.331Z,7.47
2023-04-30T07:30:33.920Z,7.73
2023-04-30T07:33:00.737Z,7.60
2023-04-30T07:35:27.515Z,6.33
2023-04-30T07:37:54.358Z,7.00
2023-04-30T07:40:28.960Z,6.77
2023-04-30T07:43:01.461Z,6.70
2023-04-30T07:45:28.263Z,7.07
2023-04-30T07:47:55.012Z,6.77
2023-04-30T07:50:21.778Z,6.83
2023-04-30T07:52:50.728Z,6.63
2023-04-30T07:55:17.554Z,6.73
2023-04-30T07:57:44.796Z,6.47
2023-04-30T08:00:12.384Z,6.50
2023-04-30T08:02:39.327Z,6.10
2023-04-30T08:05:06.389Z,7.00
2023-04-30T08:07:33.096Z,6.83
2023-04-30T08:09:59.781Z,6.07
2023-04-30T08:12:26.701Z,6.23
2023-04-30T08:15:06.591Z,6.00
2023-04-30T08:17:34.140Z,5.13
2023-04-30T08:20:01.887Z,5.67
2023-04-30T08:22:28.688Z,6.40
2023-04-30T08:24:55.988Z,6.40
2023-04-30T08:27:23.668Z,5.73
2023-04-30T08:29:50.440Z,6.30
2023-04-30T08:32:19.724Z,6.33
2023-04-30T08:34:46.712Z,6.53
2023-04-30T08:37:13.521Z,5.63
2023-04-30T08:39:40.504Z,6.17
2023-04-30T08:42:09.538Z,8.50
2023-04-30T08:44:39.934Z,11.33
2023-04-30T08:47:08.432Z,6.43
2023-04-30T08:49:37.344Z,6.10
2023-04-30T08:52:04.197Z,5.40
2023-04-30T08:54:32.802Z,5.77
2023-04-30T08:56:59.570Z,6.53
2023-04-30T08:59:26.365Z,5.10
2023-04-30T09:01:54.055Z,4.80
2023-04-30T09:04:21.395Z,5.03
2023-04-30T09:06:48.274Z,4.90
2023-04-30T09:09:16.694Z,6.27
2023-04-30T09:11:43.493Z,5.23
2023-04-30T09:14:13.257Z,5.13
2023-04-30T09:16:48.615Z,4.53
2023-04-30T09:19:41.494Z,4.53
2023-04-30T09:22:22.319Z,3.90
2023-04-30T09:24:51.127Z,3.40
2023-04-30T09:27:24.396Z,3.13
2023-04-30T09:29:51.099Z,3.60
2023-04-30T09:32:18.007Z,4.83
2023-04-30T09:34:44.686Z,3.63
2023-04-30T09:37:12.037Z,4.50
2023-04-30T09:39:50.003Z,4.27
2023-04-30T09:42:17.291Z,4.33
2023-04-30T09:44:44.185Z,4.20
2023-04-30T09:47:15.334Z,4.30
2023-04-30T09:49:52.184Z,3.53
2023-04-30T09:52:19.948Z,3.17
2023-04-30T09:54:48.008Z,3.40
2023-04-30T09:57:16.125Z,3.33
2023-04-30T09:59:46.822Z,3.63
2023-04-30T10:02:16.425Z,3.30
2023-04-30T10:04:45.578Z,2.90
2023-04-30T10:07:22.415Z,3.00
2023-04-30T10:10:20.349Z,2.50
2023-04-30T10:13:01.700Z,2.80
2023-04-30T10:15:40.177Z,2.70
2023-04-30T10:18:14.568Z,2.10
2023-04-30T10:20:41.858Z,2.43
2023-04-30T10:23:08.865Z,1.80
2023-04-30T10:25:35.924Z,2.53
2023-04-30T10:28:04.705Z,2.50
2023-04-30T10:30:33.007Z,2.50
2023-04-30T10:33:16.995Z,2.60
2023-04-30T10:35:57.133Z,2.60
2023-04-30T10:38:26.967Z,2.60
2023-04-30T10:41:04.498Z,2.73
2023-04-30T10:43:31.735Z,2.43
2023-04-30T10:45:58.991Z,1.83
2023-04-30T10:48:27.303Z,2.40
2023-04-30T10:51:01.154Z,3.00
2023-04-30T10:53:32.185Z,2.60
2023-04-30T10:56:09.647Z,2.07
2023-04-30T10:58:39.602Z,2.33
2023-04-30T11:01:16.198Z,1.87
2023-04-30T11:04:04.061Z,2.27
2023-04-30T11:07:07.544Z,2.50
2023-04-30T11:09:41.577Z,3.30
2023-04-30T11:12:29.224Z,2.80
2023-04-30T11:15:06.167Z,2.70
2023-04-30T11:17:33.915Z,2.90
2023-04-30T11:20:01.975Z,2.77
2023-04-30T11:22:36.796Z,2.87
2023-04-30T11:25:06.690Z,2.83
2023-04-30T11:27:34.927Z,3.00
2023-04-30T11:30:03.173Z,2.53
2023-04-30T11:32:35.653Z,2.10
2023-04-30T11:35:04.627Z,2.30
2023-04-30T11:37:36.381Z,2.33
2023-04-30T11:40:08.975Z,2.00
2023-04-30T11:42:36.133Z,2.30
2023-04-30T11:45:13.742Z,2.00
2023-04-30T11:47:41.175Z,1.73
2023-04-30T11:50:09.936Z,1.60
2023-04-30T11:52:37.081Z,1.80
2023-04-30T11:55:12.925Z,1.93
2023-04-30T11:57:51.237Z,2.07
2023-04-30T12:00:20.074Z,1.83
2023-04-30T12:02:49.282Z,1.80
2023-04-30T12:05:21.783Z,1.90
2023-04-30T12:07:56.197Z,2.13
2023-04-30T12:10:25.014Z,1.80
2023-04-30T12:12:53.362Z,1.70
2023-04-30T12:15:29.196Z,2.20
2023-04-30T12:18:00.192Z,2.03
2023-04-30T12:20:31.348Z,2.20
2023-04-30T12:22:58.881Z,2.30
2023-04-30T12:25:30.238Z,2.77
2023-04-30T12:27:59.660Z,2.63
2023-04-30T12:30:28.192Z,2.90
2023-04-30T12:33:01.039Z,2.70
2023-04-30T12:35:29.805Z,2.43
2023-04-30T12:38:07.470Z,2.70
2023-04-30T12:40:34.823Z,2.80
2023-04-30T12:43:07.713Z,2.67
2023-04-30T12:45:54.024Z,2.80
2023-04-30T12:48:23.149Z,2.60
2023-04-30T12:50:59.985Z,3.37
2023-04-30T12:53:27.717Z,2.97
2023-04-30T12:56:16.001Z,3.20
2023-04-30T12:58:45.816Z,2.90
2023-04-30T13:01:13.863Z,2.53
2023-04-30T13:03:41.571Z,2.50
2023-04-30T13:06:10.667Z,2.27
2023-04-30T13:08:49.783Z,2.20
2023-04-30T13:11:24.524Z,2.23
2023-04-30T13:13:51.345Z,2.30
2023-04-30T13:16:18.156Z,2.13
2023-04-30T13:18:44.968Z,2.33
2023-04-30T13:21:11.747Z,2.30
2023-04-30T13:23:48.631Z,2.40
2023-04-30T13:26:19.262Z,2.30
2023-04-30T13:28:45.979Z,3.00
2023-04-30T13:31:12.831Z,2.63
2023-04-30T13:33:39.646Z,2.53
2023-04-30T13:36:06.934Z,2.27
2023-04-30T13:38:33.827Z,2.70
2023-04-30T13:41:00.612Z,2.23
2023-04-30T13:43:27.431Z,1.90
2023-04-30T13:45:54.272Z,2.50
2023-04-30T13:48:21.093Z,2.27
2023-04-30T13:50:47.948Z,2.23
2023-04-30T13:53:15.391Z,2.00
2023-04-30T13:55:42.845Z,2.47
2023-04-30T13:58:09.780Z,2.13
2023-04-30T14:00:36.548Z,2.33
2023-04-30T14:03:05.022Z,2.10
2023-04-30T14:05:33.233Z,2.00
2023-04-30T14:08:00.362Z,2.47
2023-04-30T14:10:27.182Z,2.13
2023-04-30T14:12:54.138Z,2.07
2023-04-30T14:15:21.751Z,2.30
2023-04-30T14:17:48.735Z,1.90
2023-04-30T14:20:16.506Z,1.80
2023-04-30T14:22:43.556Z,1.80
2023-04-30T14:25:10.700Z,1.80
2023-04-30T14:27:37.686Z,1.83
2023-04-30T14:30:05.226Z,1.80
2023-04-30T14:32:32.099Z,2.20
2023-04-30T14:34:59.023Z,2.10
2023-04-30T14:37:25.894Z,1.73
2023-04-30T14:39:53.295Z,1.90
2023-04-30T14:42:20.455Z,2.00
2023-04-30T14:44:47.277Z,1.80
2023-04-30T14:47:14.889Z,2.23
2023-04-30T14:49:41.664Z,1.80
2023-04-30T14:52:08.485Z,1.90
2023-04-30T14:54:35.314Z,2.10
2023-04-30T14:57:03.580Z,1.70
2023-04-30T14:59:30.494Z,1.97
2023-04-30T15:01:57.474Z,1.60
2023-04-30T15:04:24.221Z,1.97
2023-04-30T15:06:51.144Z,1.70
2023-04-30T15:09:17.951Z,1.70
2023-04-30T15:11:44.737Z,1.77
2023-04-30T15:14:12.471Z,1.47
2023-04-30T15:16:39.731Z,1.80
2023-04-30T15:19:06.806Z,2.07
2023-04-30T15:21:33.828Z,1.80
2023-04-30T15:24:01.274Z,1.70
2023-04-30T15:26:29.061Z,1.73
2023-04-30T15:28:57.030Z,1.97
2023-04-30T15:31:24.430Z,2.00
2023-04-30T15:33:51.850Z,2.03
2023-04-30T15:36:18.836Z,2.03
2023-04-30T15:38:45.726Z,1.87
2023-04-30T15:41:12.532Z,2.10
2023-04-30T15:43:39.282Z,1.83
2023-04-30T15:46:06.208Z,2.00
2023-04-30T15:48:33.096Z,1.70
2023-04-30T15:50:59.956Z,1.90
2023-04-30T15:53:26.709Z,2.10
2023-04-30T15:55:54.137Z,1.90
2023-04-30T15:58:20.876Z,2.03
2023-04-30T16:00:47.804Z,2.10
2023-04-30T16:03:14.647Z,1.90
2023-04-30T16:05:42.001Z,2.10
2023-04-30T16:08:12.355Z,1.83
2023-04-30T16:10:39.261Z,1.67
2023-04-30T16:13:06.094Z,1.87
2023-04-30T16:15:32.858Z,1.60
2023-04-30T16:17:59.895Z,2.00
2023-04-30T16:20:27.560Z,1.60
2023-04-30T16:22:55.756Z,1.80
2023-04-30T16:25:22.862Z,1.93
2023-04-30T16:27:50.462Z,1.67
2023-04-30T16:30:17.391Z,1.87
2023-04-30T16:32:44.702Z,2.07
2023-04-30T16:35:11.570Z,2.00
2023-04-30T16:37:38.590Z,2.40
2023-04-30T16:40:07.746Z,2.03
2023-04-30T16:42:34.924Z,1.93
2023-04-30T16:45:02.056Z,2.03
2023-04-30T16:47:28.920Z,2.20
2023-04-30T16:49:57.156Z,1.77
2023-04-30T16:52:24.399Z,2.20
2023-04-30T16:54:51.106Z,1.80
2023-04-30T16:57:17.873Z,2.20
2023-04-30T16:59:45.268Z,2.13
2023-04-30T17:02:12.251Z,2.27
2023-04-30T17:04:39.017Z,1.93
2023-04-30T17:07:09.046Z,2.10
2023-04-30T17:09:36.984Z,2.07
2023-04-30T17:12:05.669Z,2.23
2023-04-30T17:14:32.380Z,2.50
2023-04-30T17:16:59.103Z,2.40
2023-04-30T17:19:25.819Z,2.13
2023-04-30T17:21:52.661Z,3.23
2023-04-30T17:24:19.450Z,2.93
2023-04-30T17:26:46.222Z,3.00
2023-04-30T17:29:13.734Z,3.27
2023-04-30T17:31:40.974Z,3.00
2023-04-30T17:34:08.117Z,3.47
2023-04-30T17:36:37.529Z,2.37
2023-04-30T17:39:05.885Z,2.73
2023-04-30T17:41:33.006Z,2.30
2023-04-30T17:44:00.016Z,2.53
2023-04-30T17:46:26.992Z,2.70
2023-04-30T17:48:53.752Z,2.53
2023-04-30T17:51:23.273Z,2.73
2023-04-30T17:53:50.412Z,2.20
2023-04-30T17:56:17.201Z,2.60
2023-04-30T17:58:46.025Z,2.80
2023-04-30T18:01:13.636Z,2.27
2023-04-30T18:03:40.691Z,2.40
2023-04-30T18:06:07.738Z,2.70
2023-04-30T18:08:34.562Z,2.90
2023-04-30T18:11:03.552Z,2.50
2023-04-30T18:13:31.278Z,2.60
2023-04-30T18:15:58.033Z,3.60
2023-04-30T18:18:24.877Z,3.27
2023-04-30T18:20:51.983Z,2.97
2023-04-30T18:23:18.824Z,2.53
2023-04-30T18:25:45.669Z,2.73
2023-04-30T18:28:12.507Z,3.03
2023-04-30T18:30:39.387Z,2.80
2023-04-30T18:33:06.605Z,3.30
2023-04-30T18:35:34.198Z,3.30
2023-04-30T18:38:02.074Z,3.67
2023-04-30T18:40:28.864Z,3.40
2023-04-30T18:42:56.989Z,2.93
2023-04-30T18:45:24.027Z,2.90
2023-04-30T18:47:51.059Z,3.20
2023-04-30T18:50:18.183Z,2.80
2023-04-30T18:52:45.350Z,2.70
2023-04-30T18:55:14.063Z,3.30
2023-04-30T18:57:42.491Z,3.57
2023-04-30T19:00:10.651Z,3.50
2023-04-30T19:02:37.711Z,3.23
2023-04-30T19:05:04.906Z,3.20
2023-04-30T19:07:31.668Z,3.50
2023-04-30T19:09:58.577Z,3.40
2023-04-30T19:12:25.372Z,3.13
2023-04-30T19:14:52.085Z,3.20
2023-04-30T19:17:21.467Z,3.03
2023-04-30T19:19:50.281Z,3.33
2023-04-30T19:22:17.527Z,3.30
2023-04-30T19:24:44.260Z,3.30
2023-04-30T19:27:11.408Z,3.00
2023-04-30T19:29:39.698Z,3.13
2023-04-30T19:32:06.855Z,3.40
2023-04-30T19:34:33.732Z,3.33
2023-04-30T19:37:00.763Z,3.03
2023-04-30T19:39:34.785Z,3.50
2023-04-30T19:42:01.742Z,4.13
2023-04-30T19:44:30.142Z,4.23
2023-04-30T19:47:10.201Z,3.70
2023-04-30T19:49:36.928Z,4.40
2023-04-30T19:52:03.746Z,4.73
2023-04-30T19:54:30.698Z,4.37
2023-04-30T19:56:58.295Z,4.07
2023-04-30T19:59:26.976Z,3.60
2023-04-30T20:01:53.890Z,3.97
2023-04-30T20:04:20.958Z,4.70
2023-04-30T20:06:48.417Z,3.80
2023-04-30T20:09:15.597Z,3.60
2023-04-30T20:11:42.409Z,3.63
2023-04-30T20:14:09.624Z,3.30
2023-04-30T20:16:36.422Z,3.50
2023-04-30T20:19:03.327Z,3.70
2023-04-30T20:21:30.577Z,3.53
2023-04-30T20:23:57.657Z,3.50
2023-04-30T20:26:25.962Z,3.50
2023-04-30T20:28:53.144Z,3.53
2023-04-30T20:31:19.959Z,3.70
2023-04-30T20:33:47.021Z,3.53
2023-04-30T20:36:13.719Z,3.63
2023-04-30T20:38:41.799Z,3.07
2023-04-30T20:41:08.526Z,3.17
2023-04-30T20:43:35.232Z,3.20
2023-04-30T20:46:02.024Z,3.77
2023-04-30T20:48:28.887Z,3.60
2023-04-30T20:50:56.586Z,3.37
2023-04-30T20:53:23.306Z,4.07
2023-04-30T20:55:50.050Z,4.00
2023-04-30T20:58:16.830Z,3.77
2023-04-30T21:00:43.646Z,4.30
2023-04-30T21:03:10.561Z,3.90
2023-04-30T21:05:37.515Z,3.80
2023-04-30T21:08:04.325Z,3.50
2023-04-30T21:10:36.552Z,3.10
2023-04-30T21:13:09.036Z,4.00
2023-04-30T21:15:36.555Z,4.20
2023-04-30T21:18:03.540Z,3.83
2023-04-30T21:20:31.921Z,3.90
2023-04-30T21:22:58.908Z,3.70
2023-04-30T21:25:25.777Z,3.53
2023-04-30T21:27:52.520Z,3.40
2023-04-30T21:30:19.545Z,3.90
2023-04-30T21:32:47.304Z,3.50
2023-04-30T21:35:15.028Z,4.07
2023-04-30T21:37:42.354Z,3.43
2023-04-30T21:40:09.891Z,3.30
2023-04-30T21:42:36.830Z,4.23
2023-04-30T21:45:03.756Z,3.60
2023-04-30T21:47:30.866Z,3.77
2023-04-30T21:49:58.816Z,3.70
2023-04-30T21:52:26.183Z,3.80
2023-04-30T21:54:53.146Z,3.70
2023-04-30T21:57:19.891Z,3.60
2023-04-30T21:59:46.649Z,4.17
2023-04-30T22:02:23.201Z,3.60
2023-04-30T22:04:50.902Z,4.07
2023-04-30T22:07:17.704Z,3.90
2023-04-30T22:09:45.072Z,4.13
2023-04-30T22:12:12.323Z,4.17
2023-04-30T22:14:39.354Z,3.80
2023-04-30T22:17:06.299Z,4.30
2023-04-30T22:19:33.033Z,4.20
2023-04-30T22:21:59.777Z,4.67
2023-04-30T22:24:26.483Z,4.10
2023-04-30T22:26:53.202Z,4.37
2023-04-30T22:29:20.098Z,4.23
2023-04-30T22:31:47.201Z,4.60
2023-04-30T22:34:15.631Z,4.17
2023-04-30T22:36:43.809Z,4.80
2023-04-30T22:39:12.020Z,4.53
2023-04-30T22:41:39.077Z,4.40
2023-04-30T22:44:05.978Z,4.30
2023-04-30T22:46:34.296Z,4.40
2023-04-30T22:49:01.366Z,4.40
2023-04-30T22:51:28.372Z,4.60
2023-04-30T22:53:56.498Z,4.60
2023-04-30T22:56:23.489Z,4.23
2023-04-30T22:58:50.317Z,5.17
2023-04-30T23:01:17.704Z,4.57
2023-04-30T23:03:44.773Z,4.30
2023-04-30T23:06:12.083Z,4.90
2023-04-30T23:08:38.806Z,4.47
2023-04-30T23:11:05.961Z,4.33
2023-04-30T23:13:32.777Z,3.90
2023-04-30T23:16:00.206Z,4.10
2023-04-30T23:18:27.200Z,4.50
2023-04-30T23:20:59.054Z,4.40
2023-04-30T23:23:26.258Z,3.93
2023-04-30T23:25:53.542Z,3.80
2023-04-30T23:28:20.557Z,3.60
2023-04-30T23:30:53.704Z,3.60
2023-04-30T23:33:21.248Z,3.30
2023-04-30T23:35:48.344Z,3.37
2023-04-30T23:38:16.454Z,3.30
2023-04-30T23:40:43.689Z,3.10
2023-04-30T23:43:11.699Z,3.30
2023-04-30T23:45:42.683Z,3.30
2023-04-30T23:48:10.584Z,3.23
2023-04-30T23:50:40.232Z,3.10
2023-04-30T23:53:07.970Z,3.10
2023-04-30T23:55:35.230Z,2.80
2023-04-30T23:58:02.215Z,3.00
